TimeEST,TemperatureF,Dew PointF,Humidity,Sea Level PressureIn,VisibilityMPH,Wind Direction,Wind SpeedMPH,Gust SpeedMPH,PrecipitationIn,Events,Conditions,WindDirDegrees,DateUTC
12:04 AM,37.4,26.6,65,29.81,10.0,WNW,12.7,24.2,N/A,,Mostly Cloudy,290,2012-12-30 05:04:00
12:25 AM,37.4,26.6,65,29.82,10.0,WNW,13.8,20.7,N/A,,Mostly Cloudy,300,2012-12-30 05:25:00
12:47 AM,37.4,26.6,65,29.83,10.0,WNW,5.8,20.7,N/A,,Overcast,300,2012-12-30 05:47:00
1:08 AM,37.4,26.6,65,29.83,10.0,WNW,13.8,20.7,N/A,,Overcast,290,2012-12-30 06:08:00
1:29 AM,37.4,26.6,65,29.85,10.0,WNW,11.5,19.6,N/A,,Overcast,290,2012-12-30 06:29:00
2:12 AM,37.4,24.8,60,29.87,10.0,NW,15.0,24.2,N/A,,Mostly Cloudy,310,2012-12-30 07:12:00
2:33 AM,37.4,23.0,56,29.88,10.0,WNW,6.9,17.3,N/A,,Overcast,290,2012-12-30 07:33:00
2:55 AM,37.4,24.8,60,29.89,10.0,WNW,9.2,20.7,N/A,,Mostly Cloudy,300,2012-12-30 07:55:00
3:16 AM,37.4,24.8,60,29.91,10.0,WNW,11.5,24.2,N/A,,Scattered Clouds,300,2012-12-30 08:16:00
4:20 AM,37.4,23.0,56,29.93,10.0,NW,10.4,23.0,N/A,,Clear,310,2012-12-30 09:20:00
4:41 AM,37.4,23.0,56,29.94,10.0,WNW,12.7,24.2,N/A,,Clear,290,2012-12-30 09:41:00
5:02 AM,35.6,21.2,56,29.95,10.0,WNW,11.5,20.7,N/A,,Clear,290,2012-12-30 10:02:00
5:24 AM,35.6,23.0,60,29.96,10.0,WNW,12.7,21.9,N/A,,Scattered Clouds,300,2012-12-30 10:24:00
5:45 AM,35.6,23.0,60,29.98,10.0,WNW,8.1,18.4,N/A,,Scattered Clouds,290,2012-12-30 10:45:00
6:06 AM,35.6,23.0,60,29.99,10.0,WNW,8.1,21.9,N/A,,Clear,300,2012-12-30 11:06:00
6:27 AM,35.6,23.0,60,30.01,10.0,WNW,12.7,21.9,N/A,,Clear,290,2012-12-30 11:27:00
6:49 AM,35.6,23.0,60,30.03,10.0,West,12.7,19.6,N/A,,Mostly Cloudy,280,2012-12-30 11:49:00
7:10 AM,35.6,23.0,60,30.04,10.0,West,16.1,23.0,N/A,,Scattered Clouds,280,2012-12-30 12:10:00
7:31 AM,35.6,21.2,56,30.06,10.0,West,11.5,25.3,N/A,,Clear,280,2012-12-30 12:31:00
7:52 AM,35.6,21.2,56,30.07,10.0,West,15.0,20.7,N/A,,Scattered Clouds,280,2012-12-30 12:52:00
8:13 AM,35.6,21.2,56,30.09,10.0,West,16.1,27.6,N/A,,Mostly Cloudy,280,2012-12-30 13:13:00
8:35 AM,37.4,21.2,52,30.11,10.0,WNW,12.7,26.5,N/A,,Overcast,290,2012-12-30 13:35:00
8:56 AM,37.4,21.2,52,30.12,10.0,WNW,15.0,27.6,N/A,,Mostly Cloudy,290,2012-12-30 13:56:00
9:17 AM,37.4,19.4,48,30.12,10.0,West,21.9,33.4,N/A,,Clear,280,2012-12-30 14:17:00
9:38 AM,37.4,19.4,48,30.14,10.0,WNW,15.0,25.3,N/A,,Scattered Clouds,300,2012-12-30 14:38:00
10:00 AM,37.4,19.4,48,30.15,10.0,WNW,16.1,31.1,N/A,,Scattered Clouds,290,2012-12-30 15:00:00
10:21 AM,37.4,19.4,48,30.16,10.0,WNW,19.6,29.9,N/A,,Scattered Clouds,300,2012-12-30 15:21:00
11:03 AM,39.2,17.6,42,30.17,10.0,NW,15.0,32.2,N/A,,Overcast,320,2012-12-30 16:03:00
11:25 AM,39.2,17.6,42,30.16,10.0,WNW,20.7,31.1,N/A,,Scattered Clouds,300,2012-12-30 16:25:00
12:07 PM,41.0,17.6,39,30.17,10.0,West,16.1,26.5,N/A,,Mostly Cloudy,280,2012-12-30 17:07:00
12:28 PM,39.2,15.8,39,30.16,10.0,WNW,15.0,26.5,N/A,,Mostly Cloudy,300,2012-12-30 17:28:00
12:49 PM,41.0,15.8,36,30.17,10.0,NW,11.5,27.6,N/A,,Scattered Clouds,320,2012-12-30 17:49:00
1:11 PM,41.0,15.8,36,30.17,10.0,WNW,18.4,31.1,N/A,,Scattered Clouds,300,2012-12-30 18:11:00
1:32 PM,41.0,15.8,36,30.17,10.0,WNW,16.1,27.6,N/A,,Scattered Clouds,300,2012-12-30 18:32:00
1:53 PM,39.2,15.8,39,30.18,10.0,WNW,12.7,27.6,N/A,,Scattered Clouds,300,2012-12-30 18:53:00
2:14 PM,41.0,17.6,39,30.17,10.0,NW,12.7,23.0,N/A,,Scattered Clouds,310,2012-12-30 19:14:00
2:36 PM,41.0,15.8,36,30.19,10.0,NW,16.1,26.5,N/A,,Scattered Clouds,310,2012-12-30 19:36:00
2:57 PM,41.0,15.8,36,30.21,10.0,WNW,12.7,21.9,N/A,,Scattered Clouds,300,2012-12-30 19:57:00
3:18 PM,41.0,17.6,39,30.22,10.0,West,16.1,23.0,N/A,,Scattered Clouds,280,2012-12-30 20:18:00
3:39 PM,39.2,17.6,42,30.24,10.0,WNW,12.7,27.6,N/A,,Scattered Clouds,290,2012-12-30 20:39:00
4:01 PM,39.2,17.6,42,30.25,10.0,NW,10.4,19.6,N/A,,Scattered Clouds,310,2012-12-30 21:01:00
4:22 PM,39.2,17.6,42,30.26,10.0,WNW,11.5,17.3,N/A,,Scattered Clouds,300,2012-12-30 21:22:00
4:43 PM,37.4,19.4,48,30.26,10.0,WNW,8.1,18.4,N/A,,Mostly Cloudy,290,2012-12-30 21:43:00
5:04 PM,37.4,17.6,45,30.29,10.0,West,10.4,-,N/A,,Scattered Clouds,280,2012-12-30 22:04:00
5:26 PM,37.4,17.6,45,30.30,10.0,West,8.1,-,N/A,,Scattered Clouds,280,2012-12-30 22:26:00
6:08 PM,35.6,17.6,48,30.32,10.0,WNW,9.2,16.1,N/A,,Clear,290,2012-12-30 23:08:00
6:29 PM,35.6,17.6,48,30.32,10.0,WNW,10.4,20.7,N/A,,Clear,300,2012-12-30 23:29:00
6:51 PM,35.6,17.6,48,30.32,10.0,WNW,6.9,-,N/A,,Clear,300,2012-12-30 23:51:00
7:12 PM,33.8,17.6,52,30.31,10.0,WNW,5.8,-,N/A,,Clear,290,2012-12-31 00:12:00
7:54 PM,33.8,17.6,52,30.32,10.0,West,8.1,-,N/A,,Clear,280,2012-12-31 00:54:00
8:16 PM,33.8,17.6,52,30.31,10.0,West,11.5,-,N/A,,Clear,280,2012-12-31 01:16:00
8:37 PM,33.8,17.6,52,30.32,10.0,WNW,6.9,-,N/A,,Clear,290,2012-12-31 01:37:00
8:58 PM,33.8,19.4,56,30.32,10.0,WNW,10.4,-,N/A,,Clear,290,2012-12-31 01:58:00
9:19 PM,32.0,19.4,60,30.33,10.0,WNW,6.9,-,N/A,,Clear,290,2012-12-31 02:19:00
9:41 PM,32.0,19.4,60,30.35,10.0,WNW,11.5,17.3,N/A,,Clear,290,2012-12-31 02:41:00
10:02 PM,32.0,19.4,60,30.34,10.0,WNW,8.1,-,N/A,,Clear,300,2012-12-31 03:02:00
10:23 PM,32.0,19.4,60,30.35,10.0,NW,5.8,-,N/A,,Clear,320,2012-12-31 03:23:00
11:06 PM,32.0,17.6,55,30.35,10.0,NW,5.8,-,N/A,,Clear,310,2012-12-31 04:06:00
11:27 PM,32.0,19.4,60,30.34,10.0,NW,5.8,-,N/A,,Clear,320,2012-12-31 04:27:00
11:48 PM,32.0,17.6,55,30.34,10.0,NW,4.6,-,N/A,,Clear,320,2012-12-31 04:48:00